sensor_id;sensor_type;location;lat;lon;timestamp;pressure;altitude;pressure_sealevel;temperature;humidity
10832;BME280;5469;48.574;8.768;2022-08-19T00:00:33;94543.56;;;21.46;63.98
10832;BME280;5469;48.574;8.768;2022-08-19T00:03:08;94547.56;;;21.52;63.51
10832;BME280;5469;48.574;8.768;2022-08-19T00:05:45;94545.38;;;21.42;64.40
10832;BME280;5469;48.574;8.768;2022-08-19T00:08:20;94545.03;;;21.43;64.00
10832;BME280;5469;48.574;8.768;2022-08-19T00:10:55;94542.25;;;21.40;63.96
10832;BME280;5469;48.574;8.768;2022-08-19T00:13:32;94542.25;;;21.40;64.04
10832;BME280;5469;48.574;8.768;2022-08-19T00:16:08;94545.72;;;21.40;63.80
10832;BME280;5469;48.574;8.768;2022-08-19T00:18:46;94548.81;;;21.26;64.47
10832;BME280;5469;48.574;8.768;2022-08-19T00:21:21;94547.00;;;21.30;64.60
10832;BME280;5469;48.574;8.768;2022-08-19T00:23:57;94534.22;;;21.27;64.62
10832;BME280;5469;48.574;8.768;2022-08-19T00:26:32;94525.88;;;21.32;64.13
10832;BME280;5469;48.574;8.768;2022-08-19T00:29:10;94524.75;;;21.33;63.86
10832;BME280;5469;48.574;8.768;2022-08-19T00:31:47;94531.94;;;21.29;63.83
10832;BME280;5469;48.574;8.768;2022-08-19T00:34:24;94530.50;;;21.48;61.94
10832;BME280;5469;48.574;8.768;2022-08-19T00:37:00;94529.44;;;21.36;63.50
10832;BME280;5469;48.574;8.768;2022-08-19T00:39:35;94531.19;;;21.45;62.67
10832;BME280;5469;48.574;8.768;2022-08-19T00:42:11;94528.41;;;21.25;64.54
10832;BME280;5469;48.574;8.768;2022-08-19T00:44:49;94523.78;;;21.26;64.91
10832;BME280;5469;48.574;8.768;2022-08-19T00:47:24;94531.88;;;21.26;64.70
10832;BME280;5469;48.574;8.768;2022-08-19T00:50:00;94548.31;;;21.36;64.58
10832;BME280;5469;48.574;8.768;2022-08-19T00:52:36;94541.63;;;21.30;65.17
10832;BME280;5469;48.574;8.768;2022-08-19T00:55:19;94541.63;;;21.30;65.03
10832;BME280;5469;48.574;8.768;2022-08-19T00:57:59;94537.84;;;21.35;63.91
10832;BME280;5469;48.574;8.768;2022-08-19T01:00:37;94540.69;;;21.38;63.32
10832;BME280;5469;48.574;8.768;2022-08-19T01:03:15;94548.13;;;21.29;66.33
10832;BME280;5469;48.574;8.768;2022-08-19T01:05:54;94552.03;;;21.16;66.60
10832;BME280;5469;48.574;8.768;2022-08-19T01:08:29;94552.03;;;21.16;66.60
10832;BME280;5469;48.574;8.768;2022-08-19T01:11:06;94539.56;;;21.11;67.11
10832;BME280;5469;48.574;8.768;2022-08-19T01:13:42;94532.31;;;21.28;64.78
10832;BME280;5469;48.574;8.768;2022-08-19T01:16:22;94543.50;;;21.14;66.33
10832;BME280;5469;48.574;8.768;2022-08-19T01:18:58;94529.75;;;21.19;66.01
10832;BME280;5469;48.574;8.768;2022-08-19T01:21:37;94533.69;;;21.22;65.70
10832;BME280;5469;48.574;8.768;2022-08-19T01:24:15;94538.47;;;21.28;64.60
10832;BME280;5469;48.574;8.768;2022-08-19T01:26:50;94543.94;;;21.16;65.83
10832;BME280;5469;48.574;8.768;2022-08-19T01:29:25;94537.75;;;21.00;68.43
10832;BME280;5469;48.574;8.768;2022-08-19T01:32:00;94537.41;;;20.57;69.00
10832;BME280;5469;48.574;8.768;2022-08-19T01:34:35;94530.78;;;20.42;71.92
10832;BME280;5469;48.574;8.768;2022-08-19T01:37:11;94533.91;;;20.57;71.34
10832;BME280;5469;48.574;8.768;2022-08-19T01:39:49;94538.75;;;20.39;71.31
10832;BME280;5469;48.574;8.768;2022-08-19T01:42:24;94531.16;;;20.28;70.70
10832;BME280;5469;48.574;8.768;2022-08-19T01:44:59;94518.59;;;20.73;70.61
10832;BME280;5469;48.574;8.768;2022-08-19T01:47:35;94517.69;;;20.69;69.18
10832;BME280;5469;48.574;8.768;2022-08-19T01:50:11;94515.16;;;20.88;70.33
10832;BME280;5469;48.574;8.768;2022-08-19T01:52:48;94518.09;;;20.83;69.53
10832;BME280;5469;48.574;8.768;2022-08-19T01:55:24;94526.63;;;20.57;73.04
10832;BME280;5469;48.574;8.768;2022-08-19T01:58:02;94527.56;;;20.65;71.39
10832;BME280;5469;48.574;8.768;2022-08-19T02:00:39;94527.56;;;20.65;71.01
10832;BME280;5469;48.574;8.768;2022-08-19T02:03:15;94528.94;;;20.87;67.62
10832;BME280;5469;48.574;8.768;2022-08-19T02:05:57;94525.50;;;20.46;70.84
10832;BME280;5469;48.574;8.768;2022-08-19T02:08:35;94520.53;;;20.20;74.31
10832;BME280;5469;48.574;8.768;2022-08-19T02:11:18;94516.16;;;20.15;74.42
10832;BME280;5469;48.574;8.768;2022-08-19T02:13:54;94516.22;;;20.03;75.28
10832;BME280;5469;48.574;8.768;2022-08-19T02:16:30;94518.16;;;19.78;77.67
10832;BME280;5469;48.574;8.768;2022-08-19T02:19:06;94516.34;;;19.57;78.03
10832;BME280;5469;48.574;8.768;2022-08-19T02:21:41;94520.81;;;19.65;78.24
10832;BME280;5469;48.574;8.768;2022-08-19T02:24:17;94512.78;;;19.78;76.89
10832;BME280;5469;48.574;8.768;2022-08-19T02:26:53;94520.81;;;19.65;77.84
10832;BME280;5469;48.574;8.768;2022-08-19T02:29:28;94517.03;;;19.79;76.87
10832;BME280;5469;48.574;8.768;2022-08-19T02:32:04;94517.22;;;19.98;74.64
10832;BME280;5469;48.574;8.768;2022-08-19T02:34:39;94514.31;;;20.03;74.92
10832;BME280;5469;48.574;8.768;2022-08-19T02:37:14;94502.28;;;20.41;70.78
10832;BME280;5469;48.574;8.768;2022-08-19T02:40:04;94512.88;;;20.34;72.27
10832;BME280;5469;48.574;8.768;2022-08-19T02:42:42;94509.25;;;20.42;71.57
10832;BME280;5469;48.574;8.768;2022-08-19T02:45:17;94503.88;;;20.42;69.88
10832;BME280;5469;48.574;8.768;2022-08-19T02:47:52;94506.13;;;20.40;71.94
10832;BME280;5469;48.574;8.768;2022-08-19T02:50:27;94503.88;;;20.42;71.72
10832;BME280;5469;48.574;8.768;2022-08-19T02:53:02;94508.59;;;20.33;72.18
10832;BME280;5469;48.574;8.768;2022-08-19T02:55:37;94509.50;;;20.37;71.59
10832;BME280;5469;48.574;8.768;2022-08-19T02:58:18;94516.06;;;20.24;73.12
10832;BME280;5469;48.574;8.768;2022-08-19T03:00:56;94520.91;;;20.18;73.30
10832;BME280;5469;48.574;8.768;2022-08-19T03:03:33;94521.44;;;20.24;72.98
10832;BME280;5469;48.574;8.768;2022-08-19T03:06:11;94514.44;;;20.35;72.63
10832;BME280;5469;48.574;8.768;2022-08-19T03:08:48;94513.38;;;20.24;73.46
10832;BME280;5469;48.574;8.768;2022-08-19T03:11:25;94523.44;;;20.27;73.18
10832;BME280;5469;48.574;8.768;2022-08-19T03:14:05;94516.06;;;20.12;74.44
10832;BME280;5469;48.574;8.768;2022-08-19T03:16:45;94507.09;;;20.20;73.38
10832;BME280;5469;48.574;8.768;2022-08-19T03:19:21;94514.34;;;20.32;71.38
10832;BME280;5469;48.574;8.768;2022-08-19T03:21:56;94506.41;;;20.23;73.44
10832;BME280;5469;48.574;8.768;2022-08-19T03:24:32;94508.66;;;20.21;73.38
10832;BME280;5469;48.574;8.768;2022-08-19T03:27:07;94502.16;;;20.22;72.63
10832;BME280;5469;48.574;8.768;2022-08-19T03:29:45;94497.78;;;20.17;73.14
10832;BME280;5469;48.574;8.768;2022-08-19T03:32:21;94507.78;;;20.04;75.04
10832;BME280;5469;48.574;8.768;2022-08-19T03:34:56;94507.56;;;20.10;74.08
10832;BME280;5469;48.574;8.768;2022-08-19T03:37:31;94506.69;;;20.05;74.67
10832;BME280;5469;48.574;8.768;2022-08-19T03:40:08;94512.84;;;20.06;73.96
10832;BME280;5469;48.574;8.768;2022-08-19T03:42:43;94497.50;;;19.94;74.98
10832;BME280;5469;48.574;8.768;2022-08-19T03:45:21;94500.84;;;20.03;74.72
10832;BME280;5469;48.574;8.768;2022-08-19T03:47:57;94492.34;;;20.01;74.99
10832;BME280;5469;48.574;8.768;2022-08-19T03:50:32;94505.00;;;20.01;74.98
10832;BME280;5469;48.574;8.768;2022-08-19T03:53:07;94515.97;;;20.08;74.48
10832;BME280;5469;48.574;8.768;2022-08-19T03:55:42;94518.56;;;19.92;75.61
10832;BME280;5469;48.574;8.768;2022-08-19T03:58:18;94520.47;;;20.04;74.15
10832;BME280;5469;48.574;8.768;2022-08-19T04:00:54;94526.41;;;19.97;75.40
10832;BME280;5469;48.574;8.768;2022-08-19T04:03:29;94516.53;;;20.01;75.04
10832;BME280;5469;48.574;8.768;2022-08-19T04:06:10;94526.16;;;20.02;73.97
10832;BME280;5469;48.574;8.768;2022-08-19T04:08:49;94522.38;;;19.91;74.99
10832;BME280;5469;48.574;8.768;2022-08-19T04:11:27;94517.22;;;19.98;74.80
10832;BME280;5469;48.574;8.768;2022-08-19T04:14:03;94512.97;;;19.97;74.99
10832;BME280;5469;48.574;8.768;2022-08-19T04:16:40;94514.78;;;19.93;75.28
10832;BME280;5469;48.574;8.768;2022-08-19T04:19:17;94526.53;;;20.01;74.61
10832;BME280;5469;48.574;8.768;2022-08-19T04:21:54;94525.53;;;19.93;75.39
10832;BME280;5469;48.574;8.768;2022-08-19T04:24:29;94531.78;;;19.97;74.76
10832;BME280;5469;48.574;8.768;2022-08-19T04:27:05;94529.44;;;19.96;75.48
10832;BME280;5469;48.574;8.768;2022-08-19T04:29:40;94528.66;;;19.95;74.84
10832;BME280;5469;48.574;8.768;2022-08-19T04:32:16;94527.31;;;19.89;76.15
10832;BME280;5469;48.574;8.768;2022-08-19T04:34:51;94514.78;;;19.93;75.61
10832;BME280;5469;48.574;8.768;2022-08-19T04:37:29;94517.69;;;19.88;76.37
10832;BME280;5469;48.574;8.768;2022-08-19T04:40:09;94518.78;;;19.99;75.04
10832;BME280;5469;48.574;8.768;2022-08-19T04:43:02;94523.94;;;19.92;75.43
10832;BME280;5469;48.574;8.768;2022-08-19T04:45:38;94521.25;;;19.92;75.61
10832;BME280;5469;48.574;8.768;2022-08-19T04:48:15;94519.47;;;19.84;76.16
10832;BME280;5469;48.574;8.768;2022-08-19T04:50:51;94511.41;;;19.84;76.31
10832;BME280;5469;48.574;8.768;2022-08-19T04:53:31;94513.88;;;19.89;75.60
10832;BME280;5469;48.574;8.768;2022-08-19T04:56:11;94520.84;;;19.78;76.53
10832;BME280;5469;48.574;8.768;2022-08-19T04:58:47;94530.47;;;19.79;75.95
10832;BME280;5469;48.574;8.768;2022-08-19T05:01:26;94530.00;;;19.89;75.43
10832;BME280;5469;48.574;8.768;2022-08-19T05:04:05;94537.84;;;19.94;75.32
10832;BME280;5469;48.574;8.768;2022-08-19T05:06:41;94533.84;;;19.88;75.14
10832;BME280;5469;48.574;8.768;2022-08-19T05:09:17;94538.75;;;19.98;74.64
10832;BME280;5469;48.574;8.768;2022-08-19T05:11:53;94541.88;;;20.00;74.87
10832;BME280;5469;48.574;8.768;2022-08-19T05:14:28;94543.69;;;19.96;75.24
10832;BME280;5469;48.574;8.768;2022-08-19T05:17:03;94559.81;;;19.84;75.61
10832;BME280;5469;48.574;8.768;2022-08-19T05:19:40;94564.28;;;19.92;74.86
10832;BME280;5469;48.574;8.768;2022-08-19T05:22:33;94578.19;;;19.94;75.14
10832;BME280;5469;48.574;8.768;2022-08-19T05:25:12;94581.34;;;19.84;76.15
10832;BME280;5469;48.574;8.768;2022-08-19T05:27:48;94595.00;;;19.91;75.13
10832;BME280;5469;48.574;8.768;2022-08-19T05:30:23;94598.16;;;19.93;75.39
10832;BME280;5469;48.574;8.768;2022-08-19T05:32:58;94596.25;;;19.94;75.48
10832;BME280;5469;48.574;8.768;2022-08-19T05:35:35;94597.00;;;19.94;75.04
10832;BME280;5469;48.574;8.768;2022-08-19T05:38:10;94589.63;;;20.03;74.09
10832;BME280;5469;48.574;8.768;2022-08-19T05:40:45;94594.56;;;19.89;75.82
10832;BME280;5469;48.574;8.768;2022-08-19T05:43:23;94604.84;;;19.87;75.64
10832;BME280;5469;48.574;8.768;2022-08-19T05:45:58;94606.22;;;19.93;75.85
10832;BME280;5469;48.574;8.768;2022-08-19T05:48:34;94600.25;;;20.00;74.69
10832;BME280;5469;48.574;8.768;2022-08-19T05:51:10;94604.09;;;19.99;74.82
10832;BME280;5469;48.574;8.768;2022-08-19T05:53:45;94607.00;;;19.94;75.13
10832;BME280;5469;48.574;8.768;2022-08-19T05:56:21;94607.00;;;20.06;73.95
10832;BME280;5469;48.574;8.768;2022-08-19T05:58:56;94614.50;;;20.13;73.35
10832;BME280;5469;48.574;8.768;2022-08-19T06:01:32;94610.47;;;20.06;72.39
10832;BME280;5469;48.574;8.768;2022-08-19T06:04:07;94604.19;;;20.02;73.92
10832;BME280;5469;48.574;8.768;2022-08-19T06:06:44;94605.53;;;19.96;74.75
10832;BME280;5469;48.574;8.768;2022-08-19T06:09:20;94603.41;;;19.90;75.28
10832;BME280;5469;48.574;8.768;2022-08-19T06:11:57;94602.53;;;19.98;74.37
10832;BME280;5469;48.574;8.768;2022-08-19T06:14:34;94605.66;;;19.88;75.02
10832;BME280;5469;48.574;8.768;2022-08-19T06:17:09;94611.13;;;19.79;76.06
10832;BME280;5469;48.574;8.768;2022-08-19T06:19:45;94610.47;;;19.82;75.52
10832;BME280;5469;48.574;8.768;2022-08-19T06:22:22;94606.91;;;19.90;75.24
10832;BME280;5469;48.574;8.768;2022-08-19T06:24:57;94612.16;;;19.86;75.33
10832;BME280;5469;48.574;8.768;2022-08-19T06:27:31;94605.75;;;19.79;75.74
10832;BME280;5469;48.574;8.768;2022-08-19T06:30:08;94598.03;;;19.77;75.42
10832;BME280;5469;48.574;8.768;2022-08-19T06:32:45;94605.44;;;19.93;74.73
10832;BME280;5469;48.574;8.768;2022-08-19T06:35:21;94601.94;;;19.92;74.63
10832;BME280;5469;48.574;8.768;2022-08-19T06:37:57;94603.75;;;19.88;74.39
10832;BME280;5469;48.574;8.768;2022-08-19T06:40:32;94610.47;;;19.82;74.96
10832;BME280;5469;48.574;8.768;2022-08-19T06:43:09;94600.28;;;19.88;74.52
10832;BME280;5469;48.574;8.768;2022-08-19T06:45:44;94605.09;;;19.82;75.22
10832;BME280;5469;48.574;8.768;2022-08-19T06:48:21;94604.41;;;19.97;74.40
10832;BME280;5469;48.574;8.768;2022-08-19T06:50:55;94603.31;;;19.98;73.84
10832;BME280;5469;48.574;8.768;2022-08-19T06:53:32;94613.59;;;19.84;74.66
10832;BME280;5469;48.574;8.768;2022-08-19T06:56:08;94609.69;;;20.06;73.11
10832;BME280;5469;48.574;8.768;2022-08-19T06:58:43;94616.06;;;19.89;74.75
10832;BME280;5469;48.574;8.768;2022-08-19T07:01:18;94622.13;;;19.98;74.06
10832;BME280;5469;48.574;8.768;2022-08-19T07:03:55;94619.44;;;19.98;73.30
10832;BME280;5469;48.574;8.768;2022-08-19T07:06:31;94621.13;;;20.03;74.01
10832;BME280;5469;48.574;8.768;2022-08-19T07:09:10;94614.38;;;20.09;73.60
10832;BME280;5469;48.574;8.768;2022-08-19T07:11:47;94624.16;;;20.01;74.06
10832;BME280;5469;48.574;8.768;2022-08-19T07:14:25;94625.25;;;20.13;73.76
10832;BME280;5469;48.574;8.768;2022-08-19T07:17:01;94623.00;;;20.15;74.18
10832;BME280;5469;48.574;8.768;2022-08-19T07:19:37;94631.31;;;20.34;72.14
10832;BME280;5469;48.574;8.768;2022-08-19T07:22:13;94628.84;;;20.29;72.78
10832;BME280;5469;48.574;8.768;2022-08-19T07:24:50;94638.78;;;20.28;73.28
10832;BME280;5469;48.574;8.768;2022-08-19T07:27:25;94642.50;;;20.36;72.24
10832;BME280;5469;48.574;8.768;2022-08-19T07:30:00;94634.66;;;20.31;72.54
10832;BME280;5469;48.574;8.768;2022-08-19T07:32:35;94633.53;;;20.32;73.22
10832;BME280;5469;48.574;8.768;2022-08-19T07:35:11;94635.78;;;20.30;72.35
10832;BME280;5469;48.574;8.768;2022-08-19T07:37:46;94632.84;;;20.35;71.97
10832;BME280;5469;48.574;8.768;2022-08-19T07:40:23;94633.31;;;20.37;72.54
10832;BME280;5469;48.574;8.768;2022-08-19T07:42:59;94637.91;;;20.24;74.02
10832;BME280;5469;48.574;8.768;2022-08-19T07:45:35;94633.06;;;20.42;72.48
10832;BME280;5469;48.574;8.768;2022-08-19T07:48:10;94634.16;;;20.54;72.81
10832;BME280;5469;48.574;8.768;2022-08-19T07:50:46;94635.09;;;20.58;71.66
10832;BME280;5469;48.574;8.768;2022-08-19T07:53:22;94635.78;;;20.55;73.37
10832;BME280;5469;48.574;8.768;2022-08-19T07:55:59;94636.66;;;20.59;71.90
10832;BME280;5469;48.574;8.768;2022-08-19T07:58:41;94631.88;;;20.80;71.66
10832;BME280;5469;48.574;8.768;2022-08-19T08:01:20;94635.13;;;20.86;71.78
10832;BME280;5469;48.574;8.768;2022-08-19T08:03:57;94632.03;;;21.00;71.18
10832;BME280;5469;48.574;8.768;2022-08-19T08:06:49;94631.31;;;21.15;70.88
10832;BME280;5469;48.574;8.768;2022-08-19T08:09:42;94630.91;;;21.01;71.03
10832;BME280;5469;48.574;8.768;2022-08-19T08:12:20;94632.50;;;21.02;71.07
10832;BME280;5469;48.574;8.768;2022-08-19T08:14:57;94620.13;;;21.01;70.70
10832;BME280;5469;48.574;8.768;2022-08-19T08:17:34;94629.72;;;21.14;70.16
10832;BME280;5469;48.574;8.768;2022-08-19T08:20:11;94636.06;;;21.06;71.05
10832;BME280;5469;48.574;8.768;2022-08-19T08:22:47;94642.56;;;21.05;70.24
10832;BME280;5469;48.574;8.768;2022-08-19T08:25:40;94635.72;;;21.07;70.29
10832;BME280;5469;48.574;8.768;2022-08-19T08:28:16;94644.34;;;21.13;70.62
10832;BME280;5469;48.574;8.768;2022-08-19T08:30:52;94649.28;;;21.11;70.90
10832;BME280;5469;48.574;8.768;2022-08-19T08:33:29;94629.09;;;21.05;71.53
10832;BME280;5469;48.574;8.768;2022-08-19T08:36:06;94639.16;;;21.20;71.63
10832;BME280;5469;48.574;8.768;2022-08-19T08:38:43;94635.03;;;21.10;70.57
10832;BME280;5469;48.574;8.768;2022-08-19T08:41:26;94644.34;;;21.13;70.74
10832;BME280;5469;48.574;8.768;2022-08-19T08:44:04;94640.34;;;21.07;71.27
10832;BME280;5469;48.574;8.768;2022-08-19T08:46:44;94647.22;;;21.20;70.51
10832;BME280;5469;48.574;8.768;2022-08-19T08:49:27;94645.31;;;21.21;69.66
10832;BME280;5469;48.574;8.768;2022-08-19T08:52:07;94649.94;;;21.20;69.66
10832;BME280;5469;48.574;8.768;2022-08-19T08:54:47;94655.91;;;21.13;69.48
10832;BME280;5469;48.574;8.768;2022-08-19T08:57:27;94655.69;;;21.06;69.58
10832;BME280;5469;48.574;8.768;2022-08-19T09:00:09;94657.38;;;21.11;69.35
10832;BME280;5469;48.574;8.768;2022-08-19T09:02:46;94664.13;;;21.05;69.46
10832;BME280;5469;48.574;8.768;2022-08-19T09:05:22;94664.13;;;21.05;69.87
10832;BME280;5469;48.574;8.768;2022-08-19T09:08:03;94661.88;;;21.07;69.29
10832;BME280;5469;48.574;8.768;2022-08-19T09:10:44;94663.66;;;21.15;69.00
10832;BME280;5469;48.574;8.768;2022-08-19T09:13:27;94666.09;;;21.20;69.15
10832;BME280;5469;48.574;8.768;2022-08-19T09:16:09;94658.94;;;21.12;69.44
10832;BME280;5469;48.574;8.768;2022-08-19T09:18:49;94664.50;;;21.19;68.84
10832;BME280;5469;48.574;8.768;2022-08-19T09:21:26;94669.94;;;21.35;69.21
10832;BME280;5469;48.574;8.768;2022-08-19T09:24:06;94665.78;;;21.37;68.15
10832;BME280;5469;48.574;8.768;2022-08-19T09:26:41;94664.22;;;21.36;67.27
10832;BME280;5469;48.574;8.768;2022-08-19T09:29:17;94658.63;;;21.29;68.46
10832;BME280;5469;48.574;8.768;2022-08-19T09:31:54;94661.94;;;21.51;68.53
10832;BME280;5469;48.574;8.768;2022-08-19T09:34:29;94664.81;;;21.58;68.59
10832;BME280;5469;48.574;8.768;2022-08-19T09:37:04;94666.81;;;21.61;68.12
10832;BME280;5469;48.574;8.768;2022-08-19T09:39:40;94672.47;;;21.56;66.95
10832;BME280;5469;48.574;8.768;2022-08-19T09:42:16;94664.47;;;21.75;67.58
10832;BME280;5469;48.574;8.768;2022-08-19T09:44:51;94673.53;;;21.67;67.89
10832;BME280;5469;48.574;8.768;2022-08-19T09:47:27;94674.13;;;21.76;66.99
10832;BME280;5469;48.574;8.768;2022-08-19T09:50:02;94675.63;;;21.90;66.73
10832;BME280;5469;48.574;8.768;2022-08-19T09:52:40;94685.53;;;21.86;67.51
10832;BME280;5469;48.574;8.768;2022-08-19T09:55:15;94684.66;;;21.81;66.88
10832;BME280;5469;48.574;8.768;2022-08-19T09:57:51;94689.38;;;21.85;66.38
10832;BME280;5469;48.574;8.768;2022-08-19T10:00:28;94685.81;;;21.80;65.48
10832;BME280;5469;48.574;8.768;2022-08-19T10:03:05;94691.00;;;21.73;66.76
10832;BME280;5469;48.574;8.768;2022-08-19T10:05:40;94699.09;;;21.73;66.80
10832;BME280;5469;48.574;8.768;2022-08-19T10:08:27;94692.16;;;21.72;66.95
10832;BME280;5469;48.574;8.768;2022-08-19T10:11:03;94688.88;;;21.95;66.51
10832;BME280;5469;48.574;8.768;2022-08-19T10:13:39;94692.41;;;21.99;66.25
10832;BME280;5469;48.574;8.768;2022-08-19T10:16:18;94686.75;;;22.04;66.63
10832;BME280;5469;48.574;8.768;2022-08-19T10:18:57;94687.22;;;22.22;65.19
10832;BME280;5469;48.574;8.768;2022-08-19T10:21:33;94696.00;;;22.03;65.95
10832;BME280;5469;48.574;8.768;2022-08-19T10:24:08;94692.63;;;22.22;64.96
10832;BME280;5469;48.574;8.768;2022-08-19T10:26:43;94695.91;;;22.15;65.02
10832;BME280;5469;48.574;8.768;2022-08-19T10:29:21;94696.97;;;22.27;65.08
10832;BME280;5469;48.574;8.768;2022-08-19T10:31:56;94681.38;;;22.36;64.65
10832;BME280;5469;48.574;8.768;2022-08-19T10:34:34;94690.94;;;22.49;64.07
10832;BME280;5469;48.574;8.768;2022-08-19T10:37:10;94690.56;;;22.66;63.56
10832;BME280;5469;48.574;8.768;2022-08-19T10:39:48;94695.88;;;22.63;63.01
10832;BME280;5469;48.574;8.768;2022-08-19T10:42:23;94693.84;;;22.76;62.59
10832;BME280;5469;48.574;8.768;2022-08-19T10:44:59;94688.72;;;22.90;62.35
10832;BME280;5469;48.574;8.768;2022-08-19T10:47:34;94684.75;;;22.84;62.91
10832;BME280;5469;48.574;8.768;2022-08-19T10:50:10;94691.09;;;22.92;61.64
10832;BME280;5469;48.574;8.768;2022-08-19T10:53:06;94678.41;;;23.11;60.88
10832;BME280;5469;48.574;8.768;2022-08-19T10:55:44;94677.25;;;23.13;60.97
10832;BME280;5469;48.574;8.768;2022-08-19T10:58:36;94672.41;;;23.22;60.59
10832;BME280;5469;48.574;8.768;2022-08-19T11:01:11;94678.69;;;23.26;60.97
10832;BME280;5469;48.574;8.768;2022-08-19T11:03:46;94678.25;;;23.04;61.10
10832;BME280;5469;48.574;8.768;2022-08-19T11:06:23;94687.03;;;22.82;60.55
10832;BME280;5469;48.574;8.768;2022-08-19T11:09:00;94684.47;;;22.89;61.29
10832;BME280;5469;48.574;8.768;2022-08-19T11:11:36;94665.56;;;22.89;61.07
10832;BME280;5469;48.574;8.768;2022-08-19T11:14:15;94671.91;;;22.61;61.19
10832;BME280;5469;48.574;8.768;2022-08-19T11:16:52;94665.72;;;22.61;60.95
10832;BME280;5469;48.574;8.768;2022-08-19T11:19:29;94662.44;;;22.87;59.99
10832;BME280;5469;48.574;8.768;2022-08-19T11:22:06;94668.16;;;23.01;59.43
10832;BME280;5469;48.574;8.768;2022-08-19T11:24:42;94668.44;;;23.16;59.29
10832;BME280;5469;48.574;8.768;2022-08-19T11:27:18;94667.72;;;23.19;58.85
10832;BME280;5469;48.574;8.768;2022-08-19T11:29:53;94658.63;;;23.07;58.94
10832;BME280;5469;48.574;8.768;2022-08-19T11:32:28;94670.59;;;23.06;58.45
10832;BME280;5469;48.574;8.768;2022-08-19T11:35:03;94657.91;;;23.10;58.66
10832;BME280;5469;48.574;8.768;2022-08-19T11:37:39;94662.88;;;23.08;58.50
10832;BME280;5469;48.574;8.768;2022-08-19T11:40:15;94669.25;;;23.59;57.22
10832;BME280;5469;48.574;8.768;2022-08-19T11:42:50;94674.97;;;23.34;57.29
10832;BME280;5469;48.574;8.768;2022-08-19T11:45:31;94666.72;;;23.46;57.13
10832;BME280;5469;48.574;8.768;2022-08-19T11:48:06;94662.03;;;23.24;57.15
10832;BME280;5469;48.574;8.768;2022-08-19T11:50:41;94664.66;;;23.20;57.49
10832;BME280;5469;48.574;8.768;2022-08-19T11:53:19;94667.72;;;23.19;57.13
10832;BME280;5469;48.574;8.768;2022-08-19T11:55:55;94669.28;;;23.00;57.56
10832;BME280;5469;48.574;8.768;2022-08-19T11:58:30;94669.59;;;23.15;57.25
10832;BME280;5469;48.574;8.768;2022-08-19T12:01:08;94667.75;;;22.83;57.02
10832;BME280;5469;48.574;8.768;2022-08-19T12:03:46;94661.91;;;22.97;57.11
10832;BME280;5469;48.574;8.768;2022-08-19T12:06:25;94672.84;;;23.24;56.54
10832;BME280;5469;48.574;8.768;2022-08-19T12:09:05;94677.25;;;23.32;56.09
10832;BME280;5469;48.574;8.768;2022-08-19T12:11:41;94661.88;;;23.36;55.05
10832;BME280;5469;48.574;8.768;2022-08-19T12:14:16;94669.97;;;23.55;55.02
10832;BME280;5469;48.574;8.768;2022-08-19T12:16:52;94659.31;;;23.24;55.29
10832;BME280;5469;48.574;8.768;2022-08-19T12:19:27;94670.56;;;23.26;54.64
10832;BME280;5469;48.574;8.768;2022-08-19T12:22:02;94665.25;;;23.52;54.14
10832;BME280;5469;48.574;8.768;2022-08-19T12:24:41;94657.47;;;23.70;53.67
10832;BME280;5469;48.574;8.768;2022-08-19T12:27:16;94648.94;;;23.68;53.07
10832;BME280;5469;48.574;8.768;2022-08-19T12:29:51;94660.84;;;24.10;51.55
10832;BME280;5469;48.574;8.768;2022-08-19T12:32:26;94653.09;;;24.58;51.67
10832;BME280;5469;48.574;8.768;2022-08-19T12:35:02;94653.59;;;24.94;50.72
10832;BME280;5469;48.574;8.768;2022-08-19T12:37:38;94658.06;;;24.82;51.21
10832;BME280;5469;48.574;8.768;2022-08-19T12:40:17;94653.84;;;25.15;49.84
10832;BME280;5469;48.574;8.768;2022-08-19T12:42:53;94661.91;;;24.78;51.11
10832;BME280;5469;48.574;8.768;2022-08-19T12:45:28;94661.09;;;24.77;52.04
10832;BME280;5469;48.574;8.768;2022-08-19T12:48:04;94666.06;;;25.02;50.83
10832;BME280;5469;48.574;8.768;2022-08-19T12:50:41;94661.72;;;24.94;50.71
10832;BME280;5469;48.574;8.768;2022-08-19T12:53:18;94667.50;;;24.92;50.24
10832;BME280;5469;48.574;8.768;2022-08-19T12:55:58;94662.28;;;25.06;49.59
10832;BME280;5469;48.574;8.768;2022-08-19T12:58:34;94669.53;;;24.99;50.35
10832;BME280;5469;48.574;8.768;2022-08-19T13:01:12;94672.53;;;24.63;50.66
10832;BME280;5469;48.574;8.768;2022-08-19T13:03:48;94669.50;;;24.42;51.03
10832;BME280;5469;48.574;8.768;2022-08-19T13:06:23;94668.91;;;24.29;51.89
10832;BME280;5469;48.574;8.768;2022-08-19T13:08:58;94672.50;;;24.60;51.09
10832;BME280;5469;48.574;8.768;2022-08-19T13:11:34;94681.25;;;24.50;51.94
10832;BME280;5469;48.574;8.768;2022-08-19T13:14:10;94682.66;;;24.43;52.21
10832;BME280;5469;48.574;8.768;2022-08-19T13:16:46;94685.03;;;24.22;52.46
10832;BME280;5469;48.574;8.768;2022-08-19T13:19:21;94690.63;;;24.56;51.79
10832;BME280;5469;48.574;8.768;2022-08-19T13:21:57;94685.66;;;24.61;51.74
10832;BME280;5469;48.574;8.768;2022-08-19T13:24:35;94684.34;;;24.78;51.49
10832;BME280;5469;48.574;8.768;2022-08-19T13:27:12;94693.81;;;24.92;51.20
10832;BME280;5469;48.574;8.768;2022-08-19T13:29:47;94691.34;;;25.10;51.28
10832;BME280;5469;48.574;8.768;2022-08-19T13:32:40;94692.53;;;25.12;50.76
10832;BME280;5469;48.574;8.768;2022-08-19T13:35:34;94690.31;;;25.18;50.76
10832;BME280;5469;48.574;8.768;2022-08-19T13:38:10;94685.09;;;24.75;51.71
10832;BME280;5469;48.574;8.768;2022-08-19T13:40:47;94688.19;;;25.04;51.11
10832;BME280;5469;48.574;8.768;2022-08-19T13:43:27;94684.47;;;24.85;51.73
10832;BME280;5469;48.574;8.768;2022-08-19T13:46:10;94687.03;;;25.05;50.91
10832;BME280;5469;48.574;8.768;2022-08-19T13:48:47;94697.78;;;24.98;50.97
10832;BME280;5469;48.574;8.768;2022-08-19T13:51:24;94687.06;;;24.78;51.71
10832;BME280;5469;48.574;8.768;2022-08-19T13:53:59;94685.09;;;24.75;52.00
10832;BME280;5469;48.574;8.768;2022-08-19T13:56:34;94686.50;;;24.66;52.04
10832;BME280;5469;48.574;8.768;2022-08-19T13:59:11;94686.78;;;24.57;52.25
10832;BME280;5469;48.574;8.768;2022-08-19T14:01:47;94687.88;;;24.29;53.12